createdAt,value
2022-08-26T00:00:27.006Z,102166.16
2022-08-26T00:01:30.004Z,102170.72
2022-08-26T00:02:31.861Z,102173.44
2022-08-26T00:03:36.435Z,102170.91
2022-08-26T00:04:38.414Z,102169.91
2022-08-26T00:05:41.778Z,102173.63
2022-08-26T00:06:46.282Z,102173.44
2022-08-26T00:07:48.513Z,102172.59
2022-08-26T00:08:51.445Z,102164.63
2022-08-26T00:09:54.463Z,102167.34
2022-08-26T00:10:57.171Z,102153.78
2022-08-26T00:12:01.832Z,102169.22
2022-08-26T00:13:04.900Z,102166.66
2022-08-26T00:14:06.774Z,102167.53
2022-08-26T00:15:11.803Z,102164.97
2022-08-26T00:16:13.614Z,102164.81
2022-08-26T00:17:15.427Z,102172.97
2022-08-26T00:18:22.700Z,102160.72
2022-08-26T00:19:24.811Z,102166.66
2022-08-26T00:20:29.956Z,102165.13
2022-08-26T00:21:32.640Z,102143.63
2022-08-26T00:22:34.422Z,102164.09
2022-08-26T00:23:36.871Z,102159.88
2022-08-26T00:24:38.843Z,102158.00
2022-08-26T00:25:42.573Z,102160.72
2022-08-26T00:26:44.667Z,102159.03
2022-08-26T00:27:47.805Z,102169.88
2022-08-26T00:28:50.168Z,102161.75
2022-08-26T00:29:52.027Z,102169.06
2022-08-26T00:30:55.462Z,102164.44
2022-08-26T00:31:57.892Z,102165.47
2022-08-26T00:33:00.745Z,102166.50
2022-08-26T00:34:03.974Z,102161.25
2022-08-26T00:35:06.463Z,102149.19
2022-08-26T00:36:14.440Z,102161.94
2022-08-26T00:37:22.332Z,102160.72
2022-08-26T00:38:24.935Z,102163.78
2022-08-26T00:39:26.812Z,102166.50
2022-08-26T00:40:36.439Z,102169.41
2022-08-26T00:41:40.741Z,102149.53
2022-08-26T00:42:45.875Z,102171.09
2022-08-26T00:43:48.145Z,102163.78
2022-08-26T00:44:50.757Z,102162.28
2022-08-26T00:46:01.258Z,102164.81
2022-08-26T00:47:08.034Z,102158.38
2022-08-26T00:48:10.359Z,102160.22
2022-08-26T00:49:26.431Z,102167.38
2022-08-26T00:50:36.182Z,102172.59
2022-08-26T00:51:46.475Z,102169.06
2022-08-26T00:52:48.870Z,102172.78
2022-08-26T00:54:02.895Z,102165.66
2022-08-26T00:55:12.194Z,102172.13
2022-08-26T00:56:28.570Z,102170.06
2022-08-26T00:57:31.984Z,102176.53
2022-08-26T00:58:36.659Z,102175.84
2022-08-26T00:59:39.255Z,102176.00
2022-08-26T01:00:41.100Z,102177.03
2022-08-26T01:01:47.193Z,102169.91
2022-08-26T01:02:50.084Z,102173.66
2022-08-26T01:03:52.798Z,102172.94
2022-08-26T01:04:58.075Z,102165.81
2022-08-26T01:06:01.572Z,102175.66
2022-08-26T01:07:05.103Z,102167.50
2022-08-26T01:08:07.625Z,102171.59
2022-08-26T01:09:09.558Z,102169.06
2022-08-26T01:10:16.994Z,102173.28
2022-08-26T01:11:20.006Z,102171.25
2022-08-26T01:12:23.567Z,102174.97
2022-08-26T01:13:27.763Z,102175.84
2022-08-26T01:14:35.328Z,102170.75
2022-08-26T01:15:46.043Z,102162.78
2022-08-26T01:16:49.293Z,102164.78
2022-08-26T01:17:51.679Z,102169.56
2022-08-26T01:19:03.109Z,102167.03
2022-08-26T01:20:21.861Z,102169.56
2022-08-26T01:21:48.159Z,102173.13
2022-08-26T01:22:56.034Z,102173.13
2022-08-26T01:23:59.595Z,102173.81
2022-08-26T01:25:03.597Z,102166.84
2022-08-26T01:26:18.261Z,102166.16
2022-08-26T01:27:22.195Z,102171.25
2022-08-26T01:28:29.281Z,102168.88
2022-08-26T01:29:33.673Z,102178.03
2022-08-26T01:30:36.860Z,102170.91
2022-08-26T01:31:46.604Z,102172.97
2022-08-26T01:32:50.475Z,102174.66
2022-08-26T01:34:04.375Z,102168.34
2022-08-26T01:35:07.462Z,102175.31
2022-08-26T01:36:10.915Z,102168.69
2022-08-26T01:37:19.658Z,102168.53
2022-08-26T01:38:23.740Z,102175.69
2022-08-26T01:39:25.791Z,102164.63
2022-08-26T01:40:33.896Z,102177.88
2022-08-26T01:41:37.372Z,102183.97
2022-08-26T01:42:41.550Z,102164.16
2022-08-26T01:43:46.490Z,102177.88
2022-08-26T01:44:59.835Z,102171.41
2022-08-26T01:46:02.506Z,102173.97
2022-08-26T01:47:06.528Z,102174.31
2022-08-26T01:48:19.280Z,102167.19
2022-08-26T01:49:23.327Z,102169.56
2022-08-26T01:50:31.885Z,102165.16
2022-08-26T01:51:37.272Z,102163.47
2022-08-26T01:52:42.831Z,102143.47
2022-08-26T01:53:46.850Z,102166.34
2022-08-26T01:54:50.392Z,102161.91
2022-08-26T01:55:57.276Z,102154.81
2022-08-26T01:56:59.786Z,102161.09
2022-08-26T01:58:06.226Z,102163.97
2022-08-26T01:59:12.224Z,102162.94
2022-08-26T02:00:14.861Z,102144.31
2022-08-26T02:01:19.289Z,102164.81
2022-08-26T02:02:21.114Z,102156.69
2022-08-26T02:03:23.822Z,102168.56
2022-08-26T02:04:29.288Z,102159.56
2022-08-26T02:05:31.387Z,102160.41
2022-08-26T02:06:37.458Z,102157.03
2022-08-26T02:07:40.504Z,102162.28
2022-08-26T02:08:46.726Z,102155.34
2022-08-26T02:09:48.565Z,102164.16
2022-08-26T02:10:50.755Z,102154.81
2022-08-26T02:11:56.834Z,102157.84
2022-08-26T02:12:58.659Z,102156.16
2022-08-26T02:14:05.524Z,102153.63
2022-08-26T02:15:11.243Z,102149.03
2022-08-26T02:16:17.163Z,102153.63
2022-08-26T02:17:33.948Z,102154.47
2022-08-26T02:18:40.259Z,102150.56
2022-08-26T02:19:47.638Z,102146.16
2022-08-26T02:20:51.566Z,102152.44
2022-08-26T02:21:53.916Z,102150.72
2022-08-26T02:22:55.861Z,102143.47
2022-08-26T02:24:07.577Z,102150.25
2022-08-26T02:25:15.574Z,102147.19
2022-08-26T02:26:21.726Z,102138.38
2022-08-26T02:27:36.155Z,102138.69
2022-08-26T02:28:50.378Z,102137.84
2022-08-26T02:29:57.627Z,102134.28
2022-08-26T02:30:59.655Z,102134.44
2022-08-26T02:32:07.201Z,102132.94
2022-08-26T02:33:09.698Z,102128.53
2022-08-26T02:34:19.199Z,102130.56
2022-08-26T02:35:23.351Z,102126.84
2022-08-26T02:36:28.733Z,102131.41
2022-08-26T02:37:32.356Z,102128.69
2022-08-26T02:38:36.351Z,102124.63
2022-08-26T02:39:41.479Z,102128.88
2022-08-26T02:40:43.985Z,102127.84
2022-08-26T02:41:46.974Z,102121.75
2022-08-26T02:42:50.369Z,102123.44
2022-08-26T02:43:56.066Z,102115.47
2022-08-26T02:44:58.125Z,102111.22
2022-08-26T02:46:02.217Z,102109.88
2022-08-26T02:47:04.597Z,102118.19
2022-08-26T02:48:12.124Z,102110.38
2022-08-26T02:49:15.010Z,102114.78
2022-08-26T02:50:16.915Z,102111.22
2022-08-26T02:51:19.509Z,102107.47
2022-08-26T02:52:21.821Z,102105.97
2022-08-26T02:53:25.453Z,102116.63
2022-08-26T02:54:27.453Z,102104.09
2022-08-26T02:55:29.287Z,102094.59
2022-08-26T02:56:34.027Z,102101.56
2022-08-26T02:57:37.529Z,102104.09
2022-08-26T02:58:39.645Z,102101.38
2022-08-26T02:59:41.484Z,102105.28
2022-08-26T03:00:53.476Z,102104.44
2022-08-26T03:01:56.262Z,102105.78
2022-08-26T03:02:59.128Z,102102.41
2022-08-26T03:04:03.611Z,102099.00
2022-08-26T03:05:05.963Z,102099.88
2022-08-26T03:06:07.906Z,102100.69
2022-08-26T03:07:10.418Z,102088.69
2022-08-26T03:08:12.167Z,102103.59
2022-08-26T03:09:18.863Z,102101.03
2022-08-26T03:10:21.882Z,102104.78
2022-08-26T03:11:23.836Z,102102.75
2022-08-26T03:12:26.879Z,102095.63
2022-08-26T03:13:28.963Z,102097.66
2022-08-26T03:14:30.806Z,102099.34
2022-08-26T03:15:32.675Z,102103.09
2022-08-26T03:16:36.242Z,102097.66
2022-08-26T03:17:38.802Z,102099.34
2022-08-26T03:18:42.600Z,102106.66
2022-08-26T03:19:44.443Z,102099.34
2022-08-26T03:20:46.787Z,102095.97
2022-08-26T03:21:48.743Z,102098.69
2022-08-26T03:22:53.365Z,102102.25
2022-08-26T03:23:58.734Z,102095.81
2022-08-26T03:25:00.665Z,102096.81
2022-08-26T03:26:05.726Z,102095.97
2022-08-26T03:27:07.615Z,102098.69
2022-08-26T03:28:09.791Z,102091.56
2022-08-26T03:29:30.327Z,102095.13
2022-08-26T03:30:45.419Z,102091.22
2022-08-26T03:31:47.731Z,102094.44
2022-08-26T03:32:49.617Z,102089.38
2022-08-26T03:33:52.185Z,102082.75
2022-08-26T03:34:54.911Z,102092.56
2022-08-26T03:35:57.435Z,102090.53
2022-08-26T03:36:59.211Z,102089.03
2022-08-26T03:38:03.349Z,102081.91
2022-08-26T03:39:05.672Z,102072.41
2022-08-26T03:40:10.491Z,102088.16
2022-08-26T03:41:12.586Z,102080.88
2022-08-26T03:42:15.039Z,102086.31
2022-08-26T03:43:17.980Z,102084.63
2022-08-26T03:44:19.984Z,102081.91
2022-08-26T03:45:22.138Z,102088.34
2022-08-26T03:46:24.133Z,102082.06
2022-08-26T03:47:28.545Z,102091.06
2022-08-26T03:48:30.410Z,102086.47
2022-08-26T03:49:34.245Z,102087.50
2022-08-26T03:50:36.079Z,102068.50
2022-08-26T03:51:38.672Z,102081.75
2022-08-26T03:52:44.066Z,102083.94
2022-08-26T03:53:48.330Z,102087.00
2022-08-26T03:54:50.232Z,102084.09
2022-08-26T03:55:52.207Z,102078.34
2022-08-26T03:56:54.105Z,102092.25
2022-08-26T03:57:55.906Z,102088.19
2022-08-26T03:58:57.658Z,102093.28
2022-08-26T04:00:01.058Z,102090.56
2022-08-26T04:01:03.119Z,102093.28
2022-08-26T04:02:11.402Z,102077.69
2022-08-26T04:03:33.690Z,102092.91
2022-08-26T04:04:35.863Z,102095.13
2022-08-26T04:05:38.083Z,102086.47
2022-08-26T04:06:43.366Z,102093.94
2022-08-26T04:07:46.863Z,102077.69
2022-08-26T04:08:50.799Z,102082.09
2022-08-26T04:09:58.767Z,102096.66
2022-08-26T04:11:01.354Z,102092.91
2022-08-26T04:12:04.105Z,102084.78
2022-08-26T04:13:06.772Z,102084.13
2022-08-26T04:14:17.649Z,102095.66
2022-08-26T04:15:22.150Z,102105.66
2022-08-26T04:16:24.031Z,102106.84
2022-08-26T04:17:29.626Z,102102.44
2022-08-26T04:18:36.928Z,102111.44
2022-08-26T04:19:39.719Z,102093.09
2022-08-26T04:20:41.496Z,102100.72
2022-08-26T04:21:44.615Z,102106.50
2022-08-26T04:22:46.518Z,102096.47
2022-08-26T04:23:51.247Z,102104.63
2022-08-26T04:24:53.170Z,102102.78
2022-08-26T04:25:55.051Z,102101.06
2022-08-26T04:26:56.958Z,102108.19
2022-08-26T04:27:58.724Z,102101.06
2022-08-26T04:29:01.307Z,102101.91
2022-08-26T04:30:04.995Z,102093.28
2022-08-26T04:31:11.279Z,102090.91
2022-08-26T04:32:13.615Z,102104.47
2022-08-26T04:33:16.123Z,102100.22
2022-08-26T04:34:34.543Z,102098.69
2022-08-26T04:35:37.222Z,102103.44
2022-08-26T04:36:41.008Z,102101.75
2022-08-26T04:37:44.101Z,102092.75
2022-08-26T04:38:46.464Z,102097.34
2022-08-26T04:39:52.596Z,102092.25
2022-08-26T04:40:54.463Z,102092.94
2022-08-26T04:41:57.873Z,102093.94
2022-08-26T04:43:00.176Z,102099.38
2022-08-26T04:44:03.658Z,102087.19
2022-08-26T04:45:09.956Z,102096.66
2022-08-26T04:46:15.984Z,102095.66
2022-08-26T04:47:17.778Z,102101.06
2022-08-26T04:48:20.894Z,102088.53
2022-08-26T04:49:23.236Z,102084.94
2022-08-26T04:50:27.911Z,102083.94
2022-08-26T04:51:29.683Z,102086.84
2022-08-26T04:52:31.530Z,102091.41
2022-08-26T04:53:33.589Z,102090.56
2022-08-26T04:54:35.561Z,102080.53
2022-08-26T04:55:39.674Z,102084.13
2022-08-26T04:56:44.114Z,102078.84
2022-08-26T04:57:46.571Z,102075.31
2022-08-26T04:58:49.658Z,102085.97
2022-08-26T04:59:51.503Z,102089.88
2022-08-26T05:00:55.142Z,102080.06
2022-08-26T05:01:59.494Z,102085.97
2022-08-26T05:03:01.459Z,102087.84
2022-08-26T05:04:04.965Z,102089.69
2022-08-26T05:05:10.573Z,102081.56
2022-08-26T05:06:12.867Z,102084.28
2022-08-26T05:07:14.646Z,102079.72
2022-08-26T05:08:22.331Z,102085.13
2022-08-26T05:09:24.743Z,102089.53
2022-08-26T05:10:26.851Z,102092.94
2022-08-26T05:11:28.599Z,102094.78
2022-08-26T05:12:31.211Z,102084.78
2022-08-26T05:13:34.802Z,102095.31
2022-08-26T05:14:36.988Z,102090.56
2022-08-26T05:15:39.190Z,102096.66
2022-08-26T05:16:41.143Z,102095.47
2022-08-26T05:17:43.081Z,102083.94
2022-08-26T05:18:46.402Z,102088.50
2022-08-26T05:19:49.390Z,102090.88
2022-08-26T05:20:54.639Z,102091.53
2022-08-26T05:21:56.724Z,102090.00
2022-08-26T05:23:01.802Z,102086.97
2022-08-26T05:24:04.731Z,102092.91
2022-08-26T05:25:06.958Z,102084.75
2022-08-26T05:26:09.035Z,102096.59
2022-08-26T05:27:12.499Z,102087.59
2022-08-26T05:28:17.659Z,102103.03
2022-08-26T05:29:19.807Z,102090.78
2022-08-26T05:30:21.992Z,102094.06
2022-08-26T05:31:29.252Z,102087.41
2022-08-26T05:32:31.972Z,102085.38
2022-08-26T05:33:34.362Z,102083.84
2022-08-26T05:34:37.535Z,102090.09
2022-08-26T05:35:40.735Z,102079.91
2022-08-26T05:36:42.533Z,102093.47
2022-08-26T05:37:44.543Z,102094.97
2022-08-26T05:38:47.042Z,102086.66
2022-08-26T05:39:51.407Z,102087.16
2022-08-26T05:40:53.328Z,102099.19
2022-08-26T05:41:55.257Z,102091.69
2022-08-26T05:42:56.989Z,102080.84
2022-08-26T05:44:01.159Z,102086.59
2022-08-26T05:45:03.288Z,102089.63
2022-08-26T05:46:08.351Z,102080.44
2022-08-26T05:47:10.219Z,102081.75
2022-08-26T05:48:13.292Z,102073.63
2022-08-26T05:49:16.359Z,102073.91
2022-08-26T05:50:23.166Z,102077.34
2022-08-26T05:51:26.359Z,102078.16
2022-08-26T05:52:28.271Z,102079.38
2022-08-26T05:53:30.126Z,102085.47
2022-08-26T05:54:34.083Z,102088.00
2022-08-26T05:55:41.726Z,102076.97
2022-08-26T05:56:43.464Z,102079.31
2022-08-26T05:57:48.180Z,102074.25
2022-08-26T05:58:49.955Z,102065.72
2022-08-26T05:59:51.951Z,102067.78
2022-08-26T06:01:03.733Z,102079.63
2022-08-26T06:02:07.279Z,102072.13
2022-08-26T06:03:09.651Z,102076.19
2022-08-26T06:04:12.432Z,102075.34
2022-08-26T06:05:14.318Z,102072.78
2022-08-26T06:06:37.322Z,102070.88
2022-08-26T06:07:58.461Z,102073.41
2022-08-26T06:09:02.473Z,102074.72
2022-08-26T06:10:28.595Z,102063.25
2022-08-26T06:11:28.194Z,102070.97
2022-08-26T06:12:29.927Z,102072.88
2022-08-26T06:13:32.179Z,102060.47
2022-08-26T06:14:34.023Z,102071.34
2022-08-26T06:15:39.892Z,102067.97
2022-08-26T06:16:45.208Z,102058.31
2022-08-26T06:17:47.004Z,102068.44
2022-08-26T06:18:52.383Z,102069.66
2022-08-26T06:19:54.114Z,102071.16
2022-08-26T06:20:57.980Z,102065.91
2022-08-26T06:22:23.346Z,102069.28
2022-08-26T06:23:47.624Z,102065.88
2022-08-26T06:25:08.494Z,102069.03
2022-08-26T06:26:13.410Z,102076.19
2022-08-26T06:27:15.425Z,102064.84
2022-08-26T06:28:17.565Z,102045.06
2022-08-26T06:29:24.115Z,102064.34
2022-08-26T06:30:26.638Z,102067.22
2022-08-26T06:31:28.929Z,102066.03
2022-08-26T06:32:31.227Z,102068.59
2022-08-26T06:33:33.890Z,102062.28
2022-08-26T06:34:36.117Z,102065.88
2022-08-26T06:35:42.463Z,102075.06
2022-08-26T06:36:45.165Z,102061.44
2022-08-26T06:37:48.435Z,102064.19
2022-08-26T06:38:51.381Z,102063.13
2022-08-26T06:39:54.374Z,102069.03
2022-08-26T06:40:59.363Z,102067.34
2022-08-26T06:42:03.067Z,102069.91
2022-08-26T06:43:10.668Z,102071.59
2022-08-26T06:44:14.810Z,102066.16
2022-08-26T06:45:16.552Z,102030.63
2022-08-26T06:46:21.794Z,102065.31
2022-08-26T06:47:23.696Z,102074.97
2022-08-26T06:48:27.062Z,102055.81
2022-08-26T06:49:28.945Z,102063.25
2022-08-26T06:50:31.390Z,102056.47
2022-08-26T06:51:35.967Z,102064.09
2022-08-26T06:52:40.843Z,102073.75
2022-08-26T06:53:48.262Z,102063.25
2022-08-26T06:54:50.609Z,102071.69
2022-08-26T06:55:52.863Z,102068.16
2022-08-26T06:56:56.989Z,102070.88
2022-08-26T06:57:58.900Z,102060.16
2022-08-26T06:59:00.759Z,102063.38
2022-08-26T07:00:07.328Z,102072.56
2022-08-26T07:01:19.962Z,102063.72
2022-08-26T07:02:23.442Z,102064.69
2022-08-26T07:03:25.358Z,102065.72
2022-08-26T07:04:28.140Z,102057.56
2022-08-26T07:05:30.286Z,102063.00
2022-08-26T07:06:39.118Z,102059.41
2022-08-26T07:07:40.968Z,102066.38
2022-08-26T07:08:45.673Z,102052.13
2022-08-26T07:09:49.265Z,102058.22
2022-08-26T07:10:55.831Z,102058.06
2022-08-26T07:11:58.047Z,102062.63
2022-08-26T07:13:00.983Z,102059.91
2022-08-26T07:14:02.854Z,102058.91
2022-08-26T07:15:05.338Z,102061.63
2022-08-26T07:16:14.528Z,102056.19
2022-08-26T07:17:16.622Z,102054.34
2022-08-26T07:18:18.645Z,102055.16
2022-08-26T07:19:30.418Z,102057.72
2022-08-26T07:20:33.063Z,102053.97
2022-08-26T07:21:35.960Z,102054.78
2022-08-26T07:22:38.625Z,102047.34
2022-08-26T07:23:41.372Z,102045.44
2022-08-26T07:24:44.055Z,102055.00
2022-08-26T07:25:45.892Z,102053.09
2022-08-26T07:26:48.021Z,102059.41
2022-08-26T07:27:53.925Z,102050.38
2022-08-26T07:28:58.110Z,102048.53
2022-08-26T07:30:02.116Z,102044.78
2022-08-26T07:31:09.661Z,102046.63
2022-08-26T07:32:14.142Z,102045.59
2022-08-26T07:33:17.831Z,102030.16
2022-08-26T07:34:20.346Z,102045.59
2022-08-26T07:35:22.263Z,102041.84
2022-08-26T07:36:25.805Z,102045.44
2022-08-26T07:37:28.235Z,102052.72
2022-08-26T07:38:33.893Z,102051.72
2022-08-26T07:39:36.256Z,102037.28
2022-08-26T07:40:41.046Z,102043.53
2022-08-26T07:41:43.115Z,102047.13
2022-08-26T07:42:44.928Z,102040.81
2022-08-26T07:43:47.351Z,102039.13
2022-08-26T07:44:49.323Z,102039.13
2022-08-26T07:45:51.165Z,102037.28
2022-08-26T07:46:54.008Z,102035.56
2022-08-26T07:47:56.226Z,102041.84
2022-08-26T07:48:58.515Z,102030.97
2022-08-26T07:50:00.470Z,102033.03
2022-08-26T07:51:02.678Z,102032.84
2022-08-26T07:52:05.755Z,102032.66
2022-08-26T07:53:07.683Z,102031.81
2022-08-26T07:54:12.545Z,102034.34
2022-08-26T07:55:15.298Z,102033.53
2022-08-26T07:56:17.274Z,102032.66
2022-08-26T07:57:19.186Z,102032.66
2022-08-26T07:58:21.084Z,102025.91
2022-08-26T07:59:23.435Z,102026.38
2022-08-26T08:00:25.478Z,102028.06
2022-08-26T08:01:29.765Z,102033.53
2022-08-26T08:02:33.023Z,102031.81
2022-08-26T08:03:36.551Z,102029.94
2022-08-26T08:04:38.404Z,102028.06
2022-08-26T08:05:41.299Z,102033.53
2022-08-26T08:06:44.123Z,102034.34
2022-08-26T08:07:46.000Z,102026.19
2022-08-26T08:08:50.838Z,102021.78
2022-08-26T08:09:53.891Z,102025.34
2022-08-26T08:10:56.502Z,102019.63
2022-08-26T08:11:58.452Z,102029.75
2022-08-26T08:13:03.371Z,102028.91
2022-08-26T08:14:08.496Z,102022.44
2022-08-26T08:15:15.531Z,102008.75
2022-08-26T08:16:17.564Z,102018.03
2022-08-26T08:17:19.433Z,102019.72
2022-08-26T08:18:23.140Z,102016.16
2022-08-26T08:19:25.135Z,102017.00
2022-08-26T08:20:40.563Z,102007.34
2022-08-26T08:21:47.103Z,102024.78
2022-08-26T08:22:50.283Z,102014.94
2022-08-26T08:23:55.888Z,102017.66
2022-08-26T08:24:57.614Z,102013.81
2022-08-26T08:26:09.253Z,102021.41
2022-08-26T08:27:11.124Z,102013.91
2022-08-26T08:28:13.854Z,102012.22
2022-08-26T08:29:15.575Z,102005.00
2022-08-26T08:30:22.896Z,102015.97
2022-08-26T08:32:53.171Z,102005.06
2022-08-26T08:33:55.347Z,102012.69
2022-08-26T08:34:57.600Z,102017.47
2022-08-26T08:36:00.050Z,102024.78
2022-08-26T08:37:01.874Z,102014.94
2022-08-26T08:38:05.501Z,102011.75
2022-08-26T08:39:08.831Z,102004.13
2022-08-26T08:40:15.435Z,102012.22
2022-08-26T08:41:45.142Z,102008.00
2022-08-26T08:43:02.400Z,102017.38
2022-08-26T08:44:13.787Z,102018.59
2022-08-26T08:45:26.166Z,102013.16
2022-08-26T08:46:30.330Z,102005.56
2022-08-26T08:47:43.124Z,102016.25
2022-08-26T08:48:53.113Z,102016.25
2022-08-26T08:50:03.418Z,102008.09
2022-08-26T08:51:43.492Z,102019.25
2022-08-26T08:52:56.726Z,102012.97
2022-08-26T08:54:00.168Z,102006.50
2022-08-26T08:55:11.055Z,102005.19
2022-08-26T08:56:32.430Z,101999.38
2022-08-26T08:57:53.819Z,102001.22
2022-08-26T08:59:04.391Z,102001.06
2022-08-26T09:00:18.061Z,101996.81
2022-08-26T09:01:28.792Z,102002.25
2022-08-26T09:02:34.640Z,101999.53
2022-08-26T09:03:51.737Z,101998.88
2022-08-26T09:05:28.572Z,101996.94
2022-08-26T09:06:31.038Z,101989.31
2022-08-26T09:07:40.767Z,101994.97
2022-08-26T09:08:45.006Z,101992.41
2022-08-26T09:09:52.754Z,101991.75
2022-08-26T09:10:58.018Z,101991.75
2022-08-26T09:12:01.728Z,101987.34
2022-08-26T09:13:13.813Z,101986.69
2022-08-26T09:14:19.208Z,101984.25
2022-08-26T09:15:28.560Z,101978.34
2022-08-26T09:16:46.832Z,101977.13
2022-08-26T09:17:55.231Z,101975.03
2022-08-26T09:18:57.155Z,101976.94
2022-08-26T09:20:19.119Z,101966.16
2022-08-26T09:21:26.196Z,101971.28
2022-08-26T09:22:31.231Z,101973.34
2022-08-26T09:23:35.852Z,101971.66
2022-08-26T09:24:41.635Z,101967.09
2022-08-26T09:26:59.220Z,101967.91
2022-08-26T09:28:01.194Z,101963.34
2022-08-26T09:29:14.494Z,101959.09
2022-08-26T09:30:27.323Z,101968.56
2022-08-26T09:31:32.727Z,101968.56
2022-08-26T09:32:35.276Z,101965.84
2022-08-26T09:33:37.150Z,101963.34
2022-08-26T09:34:54.319Z,101962.31
2022-08-26T09:36:39.060Z,101960.06
2022-08-26T09:38:53.363Z,101947.19
2022-08-26T09:40:11.104Z,101950.38
2022-08-26T09:41:27.303Z,101954.25
2022-08-26T09:42:29.114Z,101961.38
2022-08-26T09:43:31.067Z,101960.06
2022-08-26T09:44:33.617Z,101955.66
2022-08-26T09:45:37.071Z,101952.94
2022-08-26T09:46:46.511Z,101949.53
2022-08-26T09:47:56.935Z,101939.00
2022-08-26T09:49:27.491Z,101946.72
2022-08-26T09:50:37.066Z,101941.28
2022-08-26T09:51:40.020Z,101938.75
2022-08-26T09:52:42.779Z,101938.09
2022-08-26T09:53:54.595Z,101939.66
2022-08-26T09:55:12.453Z,101936.22
2022-08-26T09:56:36.787Z,101945.50
2022-08-26T09:57:47.061Z,101936.88
2022-08-26T09:58:49.376Z,101941.47
2022-08-26T09:59:51.347Z,101937.44
2022-08-26T10:00:56.971Z,101932.00
2022-08-26T10:02:19.310Z,101945.03
2022-08-26T10:03:33.335Z,101927.75
2022-08-26T10:04:36.072Z,101940.25
2022-08-26T10:05:56.516Z,101947.94
2022-08-26T10:07:07.469Z,101942.97
2022-08-26T10:08:24.537Z,101936.50
2022-08-26T10:09:26.971Z,101936.50
2022-08-26T10:10:35.409Z,101934.72
2022-08-26T10:11:45.349Z,101943.34
2022-08-26T10:13:09.446Z,101935.84
2022-08-26T10:14:21.454Z,101936.50
2022-08-26T10:15:26.603Z,101937.53
2022-08-26T10:17:07.062Z,101921.59
2022-08-26T10:18:17.549Z,101928.13
2022-08-26T10:19:56.195Z,101935.47
2022-08-26T10:21:02.713Z,101931.34
2022-08-26T10:22:13.798Z,101935.47
2022-08-26T10:23:24.810Z,101928.34
2022-08-26T10:24:34.985Z,101939.22
2022-08-26T10:25:54.067Z,101933.78
2022-08-26T10:27:07.869Z,101933.78
2022-08-26T10:28:34.036Z,101927.03
2022-08-26T10:29:46.057Z,101938.19
2022-08-26T10:30:58.591Z,101934.16
2022-08-26T10:32:05.989Z,101937.34
2022-08-26T10:33:12.443Z,101936.69
2022-08-26T10:34:17.247Z,101929.09
2022-08-26T10:35:19.751Z,101918.38
2022-08-26T10:37:10.573Z,101925.34
2022-08-26T10:38:18.583Z,101910.31
2022-08-26T10:39:29.287Z,101921.66
2022-08-26T10:40:41.840Z,101915.38
2022-08-26T10:41:47.609Z,101914.06
2022-08-26T10:43:10.098Z,101909.00
2022-08-26T10:44:18.275Z,101915.38
2022-08-26T10:45:25.426Z,101893.41
2022-08-26T10:46:41.026Z,101910.97
2022-08-26T10:48:00.391Z,101908.91
2022-08-26T10:49:08.583Z,101913.69
2022-08-26T10:50:10.905Z,101909.94
2022-08-26T10:51:26.815Z,101893.06
2022-08-26T10:52:37.979Z,101905.31
2022-08-26T10:53:44.553Z,101908.25
2022-08-26T10:54:52.200Z,101906.34
2022-08-26T10:56:15.652Z,101911.63
2022-08-26T10:57:57.631Z,101910.66
2022-08-26T10:59:14.582Z,101904.88
2022-08-26T11:01:00.468Z,101903.16
2022-08-26T11:02:06.407Z,101900.91
2022-08-26T11:03:29.864Z,101904.00
2022-08-26T11:04:43.363Z,101900.41
2022-08-26T11:06:19.606Z,101907.00
2022-08-26T11:07:42.581Z,101901.16
2022-08-26T11:08:53.291Z,101901.56
2022-08-26T11:09:55.182Z,101904.66
2022-08-26T11:11:00.360Z,101899.59
2022-08-26T11:12:06.789Z,101890.28
2022-08-26T11:13:12.286Z,101899.97
2022-08-26T11:14:29.123Z,101901.66
2022-08-26T11:15:32.036Z,101902.97
2022-08-26T11:16:43.460Z,101887.84
2022-08-26T11:17:45.811Z,101892.06
2022-08-26T11:18:51.346Z,101884.03
2022-08-26T11:20:02.181Z,101881.56
2022-08-26T11:21:46.217Z,101895.06
2022-08-26T11:22:51.011Z,101881.06
2022-08-26T11:23:53.213Z,101886.63
2022-08-26T11:24:55.008Z,101887.28
2022-08-26T11:25:57.483Z,101892.06
2022-08-26T11:26:59.358Z,101893.13
2022-08-26T11:28:02.120Z,101890.41
2022-08-26T11:29:04.591Z,101891.59
2022-08-26T11:30:15.674Z,101887.50
2022-08-26T11:31:26.729Z,101893.97
2022-08-26T11:32:57.428Z,101890.28
2022-08-26T11:34:03.208Z,101885.03
2022-08-26T11:35:08.717Z,101888.81
2022-08-26T11:36:28.671Z,101887.13
2022-08-26T11:37:40.594Z,101884.00
2022-08-26T11:38:43.186Z,101885.88
2022-08-26T11:39:55.388Z,101886.25
2022-08-26T11:41:19.991Z,101874.59
2022-08-26T11:42:29.295Z,101882.75
2022-08-26T11:43:32.700Z,101881.66
2022-08-26T11:44:49.356Z,101887.94
2022-08-26T11:46:23.827Z,101877.78
2022-08-26T11:47:32.046Z,101882.59
2022-08-26T11:48:36.790Z,101878.34
2022-08-26T11:49:38.905Z,101867.97
2022-08-26T11:50:40.728Z,101884.19
2022-08-26T11:51:45.241Z,101884.38
2022-08-26T11:53:07.611Z,101874.31
2022-08-26T11:54:16.035Z,101869.34
2022-08-26T11:55:17.978Z,101871.22
2022-08-26T11:56:28.770Z,101873.28
2022-08-26T11:57:41.359Z,101874.97
2022-08-26T11:58:45.283Z,101873.13
2022-08-26T11:59:47.693Z,101885.88
2022-08-26T12:01:18.036Z,101867.00
2022-08-26T12:02:20.736Z,101872.53
2022-08-26T12:03:30.736Z,101867.47
2022-08-26T12:04:37.781Z,101872.25
2022-08-26T12:05:44.621Z,101867.47
2022-08-26T12:06:51.059Z,101869.53
2022-08-26T12:07:54.193Z,101867.47
2022-08-26T12:09:01.170Z,101865.97
2022-08-26T12:10:05.822Z,101866.81
2022-08-26T12:11:20.112Z,101856.50
2022-08-26T12:12:26.965Z,101863.25
2022-08-26T12:13:28.879Z,101849.38
2022-08-26T12:14:33.274Z,101869.75
2022-08-26T12:15:35.718Z,101866.16
2022-08-26T12:16:40.369Z,101862.78
2022-08-26T12:17:44.007Z,101854.63
2022-08-26T12:18:45.852Z,101853.56
2022-08-26T12:19:47.915Z,101851.91
2022-08-26T12:20:54.100Z,101861.97
2022-08-26T12:22:02.238Z,101861.97
2022-08-26T12:23:05.037Z,101841.78
2022-08-26T12:24:08.549Z,101852.53
2022-08-26T12:25:12.590Z,101860.72
2022-08-26T12:26:26.660Z,101853.13
2022-08-26T12:27:41.547Z,101829.59
2022-08-26T12:28:50.667Z,101856.56
2022-08-26T12:30:02.655Z,101853.84
2022-08-26T12:31:06.170Z,101845.69
2022-08-26T12:32:14.941Z,101847.75
2022-08-26T12:33:22.810Z,101845.88
2022-08-26T12:34:26.297Z,101851.13
2022-08-26T12:35:29.400Z,101854.06
2022-08-26T12:36:36.309Z,101845.22
2022-08-26T12:37:44.750Z,101847.09
2022-08-26T12:38:46.982Z,101837.44
2022-08-26T12:39:49.290Z,101833.69
2022-08-26T12:40:51.235Z,101836.03